sensor_id;sensor_type;location;lat;lon;timestamp;pressure;altitude;pressure_sealevel;temperature;humidity
50684;BME280;36654;45.042;38.994;2023-06-10T00:01:41;100407.34;;;22.34;57.79
50684;BME280;36654;45.042;38.994;2023-06-10T00:04:08;100401.13;;;22.32;57.89
50684;BME280;36654;45.042;38.994;2023-06-10T00:06:34;100405.66;;;22.32;57.61
50684;BME280;36654;45.042;38.994;2023-06-10T00:09:05;100403.88;;;22.31;57.38
50684;BME280;36654;45.042;38.994;2023-06-10T00:11:35;100385.41;;;22.22;57.28
50684;BME280;36654;45.042;38.994;2023-06-10T00:14:01;100400.50;;;22.26;57.48
50684;BME280;36654;45.042;38.994;2023-06-10T00:16:27;100413.69;;;22.33;57.08
50684;BME280;36654;45.042;38.994;2023-06-10T00:18:53;100403.75;;;22.34;56.85
50684;BME280;36654;45.042;38.994;2023-06-10T00:21:21;100399.44;;;22.30;56.73
50684;BME280;36654;45.042;38.994;2023-06-10T00:23:47;100409.38;;;22.29;56.87
50684;BME280;36654;45.042;38.994;2023-06-10T00:26:13;100416.56;;;22.29;56.36
50684;BME280;36654;45.042;38.994;2023-06-10T00:28:39;100411.31;;;22.26;56.57
50684;BME280;36654;45.042;38.994;2023-06-10T00:31:05;100418.72;;;22.21;56.25
50684;BME280;36654;45.042;38.994;2023-06-10T00:33:31;100418.97;;;22.14;56.42
50684;BME280;36654;45.042;38.994;2023-06-10T00:35:56;100397.88;;;22.02;56.63
50684;BME280;36654;45.042;38.994;2023-06-10T00:38:22;100411.03;;;22.10;56.15
50684;BME280;36654;45.042;38.994;2023-06-10T00:40:47;100401.25;;;22.07;55.99
50684;BME280;36654;45.042;38.994;2023-06-10T00:43:13;100396.03;;;22.03;55.77
50684;BME280;36654;45.042;38.994;2023-06-10T00:45:38;100384.50;;;21.99;55.35
50684;BME280;36654;45.042;38.994;2023-06-10T00:48:05;100398.06;;;21.97;55.00
50684;BME280;36654;45.042;38.994;2023-06-10T00:50:31;100396.38;;;21.95;55.13
50684;BME280;36654;45.042;38.994;2023-06-10T00:52:58;100401.06;;;21.90;55.12
50684;BME280;36654;45.042;38.994;2023-06-10T00:55:24;100383.31;;;21.84;55.34
50684;BME280;36654;45.042;38.994;2023-06-10T00:57:53;100387.72;;;21.87;55.50
50684;BME280;36654;45.042;38.994;2023-06-10T01:00:19;100377.03;;;21.84;55.46
50684;BME280;36654;45.042;38.994;2023-06-10T01:02:44;100372.91;;;21.75;55.47
50684;BME280;36654;45.042;38.994;2023-06-10T01:05:10;100386.53;;;21.72;55.72
50684;BME280;36654;45.042;38.994;2023-06-10T01:08:01;100394.66;;;21.70;55.51
50684;BME280;36654;45.042;38.994;2023-06-10T01:10:55;100401.00;;;21.69;55.45
50684;BME280;36654;45.042;38.994;2023-06-10T01:13:22;100392.22;;;21.64;55.65
50684;BME280;36654;45.042;38.994;2023-06-10T01:15:55;100389.53;;;21.64;55.24
50684;BME280;36654;45.042;38.994;2023-06-10T01:18:21;100392.31;;;21.61;55.45
50684;BME280;36654;45.042;38.994;2023-06-10T01:20:47;100383.66;;;21.53;55.46
50684;BME280;36654;45.042;38.994;2023-06-10T01:23:14;100396.97;;;21.58;55.61
50684;BME280;36654;45.042;38.994;2023-06-10T01:25:45;100367.84;;;21.44;55.53
50684;BME280;36654;45.042;38.994;2023-06-10T01:31:16;100385.53;;;21.51;55.55
50684;BME280;36654;45.042;38.994;2023-06-10T01:33:46;100394.59;;;21.50;55.58
50684;BME280;36654;45.042;38.994;2023-06-10T01:36:13;100384.72;;;21.49;55.60
50684;BME280;36654;45.042;38.994;2023-06-10T01:38:43;100383.03;;;21.46;55.70
50684;BME280;36654;45.042;38.994;2023-06-10T01:41:13;100393.88;;;21.45;55.65
50684;BME280;36654;45.042;38.994;2023-06-10T01:43:39;100381.72;;;21.33;55.78
50684;BME280;36654;45.042;38.994;2023-06-10T01:46:05;100381.78;;;21.31;55.51
50684;BME280;36654;45.042;38.994;2023-06-10T01:48:32;100400.44;;;21.38;55.82
50684;BME280;36654;45.042;38.994;2023-06-10T01:50:58;100401.28;;;21.38;55.69
50684;BME280;36654;45.042;38.994;2023-06-10T01:53:24;100396.03;;;21.35;55.92
50684;BME280;36654;45.042;38.994;2023-06-10T01:55:50;100392.38;;;21.36;56.19
50684;BME280;36654;45.042;38.994;2023-06-10T01:58:16;100397.03;;;21.32;55.93
50684;BME280;36654;45.042;38.994;2023-06-10T02:00:41;100355.72;;;21.08;56.17
50684;BME280;36654;45.042;38.994;2023-06-10T02:03:07;100404.16;;;21.33;56.01
50684;BME280;36654;45.042;38.994;2023-06-10T02:05:33;100402.34;;;21.34;56.06
50684;BME280;36654;45.042;38.994;2023-06-10T02:07:58;100388.75;;;21.37;56.07
50684;BME280;36654;45.042;38.994;2023-06-10T02:10:24;100388.72;;;21.39;56.29
50684;BME280;36654;45.042;38.994;2023-06-10T02:12:50;100384.16;;;21.41;55.84
50684;BME280;36654;45.042;38.994;2023-06-10T02:15:16;100386.81;;;21.42;56.10
50684;BME280;36654;45.042;38.994;2023-06-10T02:17:41;100394.81;;;21.44;55.87
50684;BME280;36654;45.042;38.994;2023-06-10T02:20:07;100392.19;;;21.42;55.81
50684;BME280;36654;45.042;38.994;2023-06-10T02:22:36;100384.03;;;21.44;55.93
50684;BME280;36654;45.042;38.994;2023-06-10T02:25:02;100415.16;;;21.52;56.01
50684;BME280;36654;45.042;38.994;2023-06-10T02:27:29;100411.59;;;21.52;55.84
50684;BME280;36654;45.042;38.994;2023-06-10T02:29:56;100387.66;;;21.43;56.17
50684;BME280;36654;45.042;38.994;2023-06-10T02:32:22;100398.47;;;21.43;56.13
50684;BME280;36654;45.042;38.994;2023-06-10T02:34:48;100403.84;;;21.43;56.23
50684;BME280;36654;45.042;38.994;2023-06-10T02:37:15;100398.59;;;21.40;56.48
50684;BME280;36654;45.042;38.994;2023-06-10T02:39:40;100398.59;;;21.40;56.80
50684;BME280;36654;45.042;38.994;2023-06-10T02:42:06;100401.28;;;21.40;57.17
50684;BME280;36654;45.042;38.994;2023-06-10T02:44:32;100386.13;;;21.36;57.02
50684;BME280;36654;45.042;38.994;2023-06-10T02:46:58;100386.03;;;21.39;56.91
50684;BME280;36654;45.042;38.994;2023-06-10T02:49:23;100389.31;;;21.47;56.83
50684;BME280;36654;45.042;38.994;2023-06-10T02:51:50;100389.53;;;21.41;56.27
50684;BME280;36654;45.042;38.994;2023-06-10T02:54:19;100402.09;;;21.42;56.49
50684;BME280;36654;45.042;38.994;2023-06-10T02:56:45;100384.72;;;21.25;56.63
50684;BME280;36654;45.042;38.994;2023-06-10T02:59:11;100398.84;;;21.32;56.89
50684;BME280;36654;45.042;38.994;2023-06-10T03:01:37;100406.16;;;21.28;56.60
50684;BME280;36654;45.042;38.994;2023-06-10T03:04:06;100407.22;;;21.24;56.68
50684;BME280;36654;45.042;38.994;2023-06-10T03:06:32;100405.75;;;21.16;56.87
50684;BME280;36654;45.042;38.994;2023-06-10T03:09:03;100413.09;;;21.12;57.00
50684;BME280;36654;45.042;38.994;2023-06-10T03:11:35;100409.59;;;21.08;57.08
50684;BME280;36654;45.042;38.994;2023-06-10T03:14:01;100394.44;;;21.06;57.47
50684;BME280;36654;45.042;38.994;2023-06-10T03:16:27;100398.19;;;21.02;57.60
50684;BME280;36654;45.042;38.994;2023-06-10T03:18:52;100382.38;;;20.93;57.88
50684;BME280;36654;45.042;38.994;2023-06-10T03:21:18;100397.28;;;21.01;57.96
50684;BME280;36654;45.042;38.994;2023-06-10T03:23:44;100395.69;;;20.97;58.11
50684;BME280;36654;45.042;38.994;2023-06-10T03:26:10;100394.81;;;20.97;58.12
50684;BME280;36654;45.042;38.994;2023-06-10T03:28:37;100398.28;;;20.99;58.02
50684;BME280;36654;45.042;38.994;2023-06-10T03:31:03;100393.91;;;20.96;58.17
50684;BME280;36654;45.042;38.994;2023-06-10T03:33:29;100394.69;;;21.00;58.04
50684;BME280;36654;45.042;38.994;2023-06-10T03:35:55;100401.69;;;21.04;57.48
50684;BME280;36654;45.042;38.994;2023-06-10T03:38:21;100357.88;;;20.75;57.70
50684;BME280;36654;45.042;38.994;2023-06-10T03:40:47;100405.34;;;21.03;57.36
50684;BME280;36654;45.042;38.994;2023-06-10T03:43:12;100405.34;;;21.03;57.63
50684;BME280;36654;45.042;38.994;2023-06-10T03:45:38;100394.81;;;20.97;57.51
50684;BME280;36654;45.042;38.994;2023-06-10T03:48:04;100385.19;;;20.89;57.62
50684;BME280;36654;45.042;38.994;2023-06-10T03:50:29;100423.16;;;21.07;57.79
50684;BME280;36654;45.042;38.994;2023-06-10T03:52:55;100411.38;;;21.09;57.69
50684;BME280;36654;45.042;38.994;2023-06-10T03:55:21;100410.44;;;21.10;58.07
50684;BME280;36654;45.042;38.994;2023-06-10T03:57:49;100396.22;;;21.07;57.65
50684;BME280;36654;45.042;38.994;2023-06-10T04:00:16;100413.00;;;21.14;58.06
50684;BME280;36654;45.042;38.994;2023-06-10T04:02:45;100408.63;;;21.11;58.23
50684;BME280;36654;45.042;38.994;2023-06-10T04:05:12;100411.25;;;21.13;58.54
50684;BME280;36654;45.042;38.994;2023-06-10T04:07:39;100419.19;;;21.17;58.68
50684;BME280;36654;45.042;38.994;2023-06-10T04:10:07;100414.53;;;21.21;58.34
50684;BME280;36654;45.042;38.994;2023-06-10T04:12:32;100412.78;;;21.20;58.11
50684;BME280;36654;45.042;38.994;2023-06-10T04:14:58;100411.81;;;21.22;58.23
50684;BME280;36654;45.042;38.994;2023-06-10T04:17:25;100408.28;;;21.20;57.63
50684;BME280;36654;45.042;38.994;2023-06-10T04:19:50;100400.88;;;21.25;57.69
50684;BME280;36654;45.042;38.994;2023-06-10T04:22:16;100394.38;;;21.31;57.51
50684;BME280;36654;45.042;38.994;2023-06-10T04:24:43;100403.28;;;21.33;57.25
50684;BME280;36654;45.042;38.994;2023-06-10T04:27:08;100401.16;;;21.43;57.16
50684;BME280;36654;45.042;38.994;2023-06-10T04:29:35;100400.09;;;21.47;56.72
50684;BME280;36654;45.042;38.994;2023-06-10T04:32:01;100403.59;;;21.49;56.21
50684;BME280;36654;45.042;38.994;2023-06-10T04:34:27;100394.47;;;21.53;56.27
50684;BME280;36654;45.042;38.994;2023-06-10T04:36:53;100385.31;;;21.57;56.23
50684;BME280;36654;45.042;38.994;2023-06-10T04:39:18;100383.06;;;21.68;56.21
50684;BME280;36654;45.042;38.994;2023-06-10T04:41:45;100372.09;;;21.73;56.10
50684;BME280;36654;45.042;38.994;2023-06-10T04:44:12;100377.16;;;21.81;56.47
50684;BME280;36654;45.042;38.994;2023-06-10T04:46:37;100383.31;;;21.84;56.43
50684;BME280;36654;45.042;38.994;2023-06-10T04:49:03;100367.38;;;21.78;56.54
50684;BME280;36654;45.042;38.994;2023-06-10T04:51:30;100389.09;;;21.75;56.21
50684;BME280;36654;45.042;38.994;2023-06-10T04:53:57;100383.06;;;21.68;56.61
50684;BME280;36654;45.042;38.994;2023-06-10T04:56:23;100370.44;;;21.69;56.54
50684;BME280;36654;45.042;38.994;2023-06-10T04:58:49;100348.31;;;21.61;56.63
50684;BME280;36654;45.042;38.994;2023-06-10T05:01:15;100372.72;;;21.80;56.37
50684;BME280;36654;45.042;38.994;2023-06-10T05:03:41;100334.75;;;21.62;56.63
50684;BME280;36654;45.042;38.994;2023-06-10T05:06:06;100358.97;;;21.86;56.84
50684;BME280;36654;45.042;38.994;2023-06-10T05:08:33;100357.22;;;21.85;56.78
50684;BME280;36654;45.042;38.994;2023-06-10T05:10:59;100353.66;;;21.84;56.99
50684;BME280;36654;45.042;38.994;2023-06-10T05:13:24;100374.78;;;21.95;56.16
50684;BME280;36654;45.042;38.994;2023-06-10T05:15:50;100327.22;;;21.70;56.62
50684;BME280;36654;45.042;38.994;2023-06-10T05:18:16;100369.25;;;21.98;56.31
50684;BME280;36654;45.042;38.994;2023-06-10T05:20:41;100378.16;;;22.00;56.77
50684;BME280;36654;45.042;38.994;2023-06-10T05:23:07;100355.22;;;21.90;57.06
50684;BME280;36654;45.042;38.994;2023-06-10T05:25:33;100347.94;;;21.92;57.26
50684;BME280;36654;45.042;38.994;2023-06-10T05:27:59;100361.84;;;22.03;57.34
50684;BME280;36654;45.042;38.994;2023-06-10T05:30:25;100345.63;;;22.03;57.46
50684;BME280;36654;45.042;38.994;2023-06-10T05:32:52;100323.16;;;21.82;56.67
50684;BME280;36654;45.042;38.994;2023-06-10T05:35:18;100343.41;;;21.92;56.38
50684;BME280;36654;45.042;38.994;2023-06-10T05:37:44;100373.50;;;22.04;56.00
50684;BME280;36654;45.042;38.994;2023-06-10T05:40:10;100364.47;;;22.05;55.87
50684;BME280;36654;45.042;38.994;2023-06-10T05:42:36;100356.31;;;22.06;55.83
50684;BME280;36654;45.042;38.994;2023-06-10T05:45:02;100348.88;;;22.11;56.02
50684;BME280;36654;45.042;38.994;2023-06-10T05:47:28;100349.88;;;22.09;55.40
50684;BME280;36654;45.042;38.994;2023-06-10T05:49:54;100329.72;;;21.97;55.19
50684;BME280;36654;45.042;38.994;2023-06-10T05:52:19;100370.19;;;22.19;55.05
50684;BME280;36654;45.042;38.994;2023-06-10T05:54:45;100373.31;;;22.30;55.07
50684;BME280;36654;45.042;38.994;2023-06-10T05:57:11;100353.00;;;22.42;54.79
50684;BME280;36654;45.042;38.994;2023-06-10T05:59:36;100365.34;;;22.68;54.23
50684;BME280;36654;45.042;38.994;2023-06-10T06:02:02;100355.28;;;22.72;54.36
50684;BME280;36654;45.042;38.994;2023-06-10T06:04:28;100356.97;;;22.74;54.19
50684;BME280;36654;45.042;38.994;2023-06-10T06:06:54;100330.25;;;22.48;53.87
50684;BME280;36654;45.042;38.994;2023-06-10T06:09:19;100318.72;;;22.44;54.34
50684;BME280;36654;45.042;38.994;2023-06-10T06:11:45;100364.50;;;22.47;54.50
50684;BME280;36654;45.042;38.994;2023-06-10T06:14:10;100369.06;;;22.45;54.42
50684;BME280;36654;45.042;38.994;2023-06-10T06:16:36;100365.41;;;22.46;54.77
50684;BME280;36654;45.042;38.994;2023-06-10T06:19:02;100370.56;;;22.52;55.12
50684;BME280;36654;45.042;38.994;2023-06-10T06:21:27;100341.25;;;22.43;55.13
50684;BME280;36654;45.042;38.994;2023-06-10T06:23:53;100351.13;;;22.44;55.11
50684;BME280;36654;45.042;38.994;2023-06-10T06:26:18;100349.97;;;22.50;55.33
50684;BME280;36654;45.042;38.994;2023-06-10T06:28:44;100347.19;;;22.51;55.35
50684;BME280;36654;45.042;38.994;2023-06-10T06:31:10;100315.41;;;22.37;55.91
50684;BME280;36654;45.042;38.994;2023-06-10T06:33:35;100340.50;;;22.60;56.22
50684;BME280;36654;45.042;38.994;2023-06-10T06:36:01;100329.91;;;22.55;56.04
50684;BME280;36654;45.042;38.994;2023-06-10T06:38:27;100353.66;;;22.68;56.04
50684;BME280;36654;45.042;38.994;2023-06-10T06:40:53;100350.81;;;22.71;55.75
50684;BME280;36654;45.042;38.994;2023-06-10T06:43:19;100326.38;;;22.53;55.86
50684;BME280;36654;45.042;38.994;2023-06-10T06:45:45;100358.78;;;22.74;55.81
50684;BME280;36654;45.042;38.994;2023-06-10T06:48:11;100355.88;;;22.78;56.52
50684;BME280;36654;45.042;38.994;2023-06-10T06:50:37;100342.81;;;22.69;56.40
50684;BME280;36654;45.042;38.994;2023-06-10T06:53:04;100348.38;;;22.85;56.38
50684;BME280;36654;45.042;38.994;2023-06-10T06:55:29;100363.91;;;23.00;56.36
50684;BME280;36654;45.042;38.994;2023-06-10T06:57:55;100343.25;;;22.99;56.46
50684;BME280;36654;45.042;38.994;2023-06-10T07:00:21;100365.78;;;23.19;55.75
50684;BME280;36654;45.042;38.994;2023-06-10T07:02:47;100362.13;;;23.20;54.84
50684;BME280;36654;45.042;38.994;2023-06-10T07:05:13;100359.91;;;23.28;54.53
50684;BME280;36654;45.042;38.994;2023-06-10T07:07:38;100355.97;;;23.35;54.04
50684;BME280;36654;45.042;38.994;2023-06-10T07:10:04;100327.19;;;23.34;53.71
50684;BME280;36654;45.042;38.994;2023-06-10T07:12:30;100356.78;;;23.75;52.31
50684;BME280;36654;45.042;38.994;2023-06-10T07:14:56;100349.78;;;23.88;52.11
50684;BME280;36654;45.042;38.994;2023-06-10T07:17:21;100363.34;;;24.06;51.48
50684;BME280;36654;45.042;38.994;2023-06-10T07:19:47;100372.28;;;24.08;51.56
50684;BME280;36654;45.042;38.994;2023-06-10T07:22:13;100365.59;;;24.15;51.34
50684;BME280;36654;45.042;38.994;2023-06-10T07:24:39;100357.81;;;24.09;50.92
50684;BME280;36654;45.042;38.994;2023-06-10T07:27:05;100360.50;;;24.09;50.75
50684;BME280;36654;45.042;38.994;2023-06-10T07:29:31;100320.97;;;23.87;50.37
50684;BME280;36654;45.042;38.994;2023-06-10T07:31:56;100364.78;;;24.13;50.50
50684;BME280;36654;45.042;38.994;2023-06-10T07:34:22;100358.19;;;24.19;51.12
50684;BME280;36654;45.042;38.994;2023-06-10T07:36:48;100368.00;;;24.21;51.01
50684;BME280;36654;45.042;38.994;2023-06-10T07:39:13;100341.63;;;24.07;51.06
50684;BME280;36654;45.042;38.994;2023-06-10T07:41:39;100351.25;;;24.30;50.97
50684;BME280;36654;45.042;38.994;2023-06-10T07:44:04;100364.53;;;24.54;50.23
50684;BME280;36654;45.042;38.994;2023-06-10T07:46:30;100340.81;;;24.75;49.87
50684;BME280;36654;45.042;38.994;2023-06-10T07:48:55;100343.56;;;24.91;49.30
50684;BME280;36654;45.042;38.994;2023-06-10T07:51:22;100337.38;;;24.89;49.57
50684;BME280;36654;45.042;38.994;2023-06-10T07:53:47;100326.78;;;24.84;49.45
50684;BME280;36654;45.042;38.994;2023-06-10T07:56:13;100334.25;;;24.96;49.58
50684;BME280;36654;45.042;38.994;2023-06-10T07:58:39;100333.22;;;25.15;49.23
50684;BME280;36654;45.042;38.994;2023-06-10T08:01:04;100322.56;;;25.28;48.50
50684;BME280;36654;45.042;38.994;2023-06-10T08:03:30;100293.50;;;25.14;48.80
50684;BME280;36654;45.042;38.994;2023-06-10T08:05:56;100314.25;;;25.31;48.32
50684;BME280;36654;45.042;38.994;2023-06-10T08:08:21;100308.81;;;25.15;48.08
50684;BME280;36654;45.042;38.994;2023-06-10T08:10:47;100341.19;;;25.18;48.69
50684;BME280;36654;45.042;38.994;2023-06-10T08:13:14;100334.91;;;25.17;48.71
50684;BME280;36654;45.042;38.994;2023-06-10T08:15:40;100287.19;;;24.97;48.77
50684;BME280;36654;45.042;38.994;2023-06-10T08:18:05;100289.47;;;25.05;48.13
50684;BME280;36654;45.042;38.994;2023-06-10T08:20:31;100337.91;;;25.29;48.18
50684;BME280;36654;45.042;38.994;2023-06-10T08:22:57;100337.28;;;25.24;48.27
50684;BME280;36654;45.042;38.994;2023-06-10T08:25:23;100324.59;;;25.24;47.92
50684;BME280;36654;45.042;38.994;2023-06-10T08:27:48;100315.59;;;25.24;47.84
50684;BME280;36654;45.042;38.994;2023-06-10T08:30:16;100337.28;;;25.24;48.00
50684;BME280;36654;45.042;38.994;2023-06-10T08:32:42;100342.06;;;25.18;48.13
50684;BME280;36654;45.042;38.994;2023-06-10T08:35:07;100336.00;;;25.13;48.66
50684;BME280;36654;45.042;38.994;2023-06-10T08:37:33;100343.25;;;25.13;49.07
50684;BME280;36654;45.042;38.994;2023-06-10T08:39:59;100337.75;;;25.14;48.95
50684;BME280;36654;45.042;38.994;2023-06-10T08:42:28;100341.31;;;25.16;49.22
50684;BME280;36654;45.042;38.994;2023-06-10T08:45:01;100302.56;;;24.97;48.40
50684;BME280;36654;45.042;38.994;2023-06-10T08:47:29;100303.63;;;25.10;47.91
50684;BME280;36654;45.042;38.994;2023-06-10T08:50:03;100334.59;;;25.24;48.27
50684;BME280;36654;45.042;38.994;2023-06-10T08:52:36;100336.56;;;25.20;48.00
50684;BME280;36654;45.042;38.994;2023-06-10T08:55:18;100318.50;;;25.03;48.28
50684;BME280;36654;45.042;38.994;2023-06-10T08:57:51;100315.59;;;24.90;48.60
50684;BME280;36654;45.042;38.994;2023-06-10T09:00:18;100321.13;;;25.05;48.72
50684;BME280;36654;45.042;38.994;2023-06-10T09:02:44;100324.88;;;25.02;49.21
50684;BME280;36654;45.042;38.994;2023-06-10T09:05:10;100333.19;;;24.99;49.13
50684;BME280;36654;45.042;38.994;2023-06-10T09:07:36;100330.47;;;24.99;49.13
50684;BME280;36654;45.042;38.994;2023-06-10T09:10:03;100322.34;;;24.99;49.21
50684;BME280;36654;45.042;38.994;2023-06-10T09:12:34;100316.75;;;25.02;49.69
50684;BME280;36654;45.042;38.994;2023-06-10T09:15:01;100331.44;;;24.98;49.40
50684;BME280;36654;45.042;38.994;2023-06-10T09:17:27;100326.34;;;24.92;50.22
50684;BME280;36654;45.042;38.994;2023-06-10T09:19:53;100319.03;;;24.94;50.26
50684;BME280;36654;45.042;38.994;2023-06-10T09:22:21;100315.78;;;25.03;50.70
50684;BME280;36654;45.042;38.994;2023-06-10T09:24:47;100322.31;;;25.16;49.92
50684;BME280;36654;45.042;38.994;2023-06-10T09:27:13;100294.88;;;25.05;49.78
50684;BME280;36654;45.042;38.994;2023-06-10T09:29:56;100327.66;;;25.34;49.91
50684;BME280;36654;45.042;38.994;2023-06-10T09:32:24;100285.84;;;25.22;50.06
50684;BME280;36654;45.042;38.994;2023-06-10T09:34:50;100319.44;;;25.51;49.95
50684;BME280;36654;45.042;38.994;2023-06-10T09:37:25;100300.53;;;25.50;49.36
50684;BME280;36654;45.042;38.994;2023-06-10T09:40:05;100296.31;;;25.60;49.63
50684;BME280;36654;45.042;38.994;2023-06-10T09:42:35;100315.91;;;25.81;49.48
50684;BME280;36654;45.042;38.994;2023-06-10T09:45:05;100314.78;;;25.85;49.77
50684;BME280;36654;45.042;38.994;2023-06-10T09:47:32;100306.97;;;25.95;49.48
50684;BME280;36654;45.042;38.994;2023-06-10T09:49:58;100313.06;;;26.14;49.39
50684;BME280;36654;45.042;38.994;2023-06-10T09:52:25;100311.59;;;26.23;49.28
50684;BME280;36654;45.042;38.994;2023-06-10T09:54:52;100310.53;;;26.25;48.93
50684;BME280;36654;45.042;38.994;2023-06-10T09:57:19;100305.44;;;26.35;48.96
50684;BME280;36654;45.042;38.994;2023-06-10T09:59:45;100296.78;;;26.43;48.93
50684;BME280;36654;45.042;38.994;2023-06-10T10:02:17;100298.81;;;26.70;48.26
50684;BME280;36654;45.042;38.994;2023-06-10T10:04:44;100305.72;;;26.89;48.10
50684;BME280;36654;45.042;38.994;2023-06-10T10:07:10;100293.63;;;27.08;47.23
50684;BME280;36654;45.042;38.994;2023-06-10T10:09:37;100308.69;;;27.28;46.76
50684;BME280;36654;45.042;38.994;2023-06-10T10:12:09;100263.06;;;27.19;46.25
50684;BME280;36654;45.042;38.994;2023-06-10T10:14:36;100294.50;;;27.37;46.52
50684;BME280;36654;45.042;38.994;2023-06-10T10:17:06;100241.22;;;27.06;46.47
50684;BME280;36654;45.042;38.994;2023-06-10T10:19:36;100261.00;;;27.22;46.51
50684;BME280;36654;45.042;38.994;2023-06-10T10:22:07;100292.13;;;27.45;46.28
50684;BME280;36654;45.042;38.994;2023-06-10T10:24:39;100255.56;;;27.22;45.98
50684;BME280;36654;45.042;38.994;2023-06-10T10:27:17;100279.47;;;27.31;46.65
50684;BME280;36654;45.042;38.994;2023-06-10T10:29:46;100223.06;;;26.92;46.19
50684;BME280;36654;45.042;38.994;2023-06-10T10:32:13;100292.38;;;27.14;46.47
50684;BME280;36654;45.042;38.994;2023-06-10T10:35:07;100282.09;;;27.04;47.08
50684;BME280;36654;45.042;38.994;2023-06-10T10:37:35;100277.53;;;27.05;46.97
50684;BME280;36654;45.042;38.994;2023-06-10T10:40:02;100264.28;;;27.13;47.08
50684;BME280;36654;45.042;38.994;2023-06-10T10:42:28;100279.88;;;27.11;46.78
50684;BME280;36654;45.042;38.994;2023-06-10T10:44:55;100232.84;;;26.95;47.03
50684;BME280;36654;45.042;38.994;2023-06-10T10:47:21;100263.72;;;27.22;46.83
50684;BME280;36654;45.042;38.994;2023-06-10T10:49:51;100271.84;;;27.37;46.83
50684;BME280;36654;45.042;38.994;2023-06-10T10:52:18;100273.22;;;27.44;46.83
50684;BME280;36654;45.042;38.994;2023-06-10T10:54:46;100266.81;;;27.30;47.44
50684;BME280;36654;45.042;38.994;2023-06-10T10:57:22;100269.84;;;27.26;47.71
50684;BME280;36654;45.042;38.994;2023-06-10T11:02:17;100257.19;;;27.10;47.75
50684;BME280;36654;45.042;38.994;2023-06-10T11:04:47;100253.81;;;27.07;47.91
50684;BME280;36654;45.042;38.994;2023-06-10T11:07:13;100252.09;;;27.06;48.17
50684;BME280;36654;45.042;38.994;2023-06-10T11:15:12;100261.28;;;27.18;48.48
50684;BME280;36654;45.042;38.994;2023-06-10T11:18:11;100264.28;;;27.13;49.17
50684;BME280;36654;45.042;38.994;2023-06-10T11:21:03;100262.34;;;27.15;48.79
50684;BME280;36654;45.042;38.994;2023-06-10T11:26:17;100263.22;;;27.16;48.94
50684;BME280;36654;45.042;38.994;2023-06-10T11:31:19;100257.81;;;27.01;49.70
50684;BME280;36654;45.042;38.994;2023-06-10T11:33:55;100253.75;;;26.94;50.03
50684;BME280;36654;45.042;38.994;2023-06-10T11:36:22;100265.69;;;26.92;49.30
50684;BME280;36654;45.042;38.994;2023-06-10T11:38:49;100250.16;;;26.94;49.23
50684;BME280;36654;45.042;38.994;2023-06-10T11:41:15;100253.16;;;26.89;48.80
50684;BME280;36654;45.042;38.994;2023-06-10T11:43:43;100252.66;;;26.97;48.82
50684;BME280;36654;45.042;38.994;2023-06-10T11:46:10;100257.63;;;27.04;48.19
50684;BME280;36654;45.042;38.994;2023-06-10T11:48:36;100255.38;;;27.11;48.07
50684;BME280;36654;45.042;38.994;2023-06-10T11:51:06;100260.22;;;27.20;47.92
50684;BME280;36654;45.042;38.994;2023-06-10T11:53:32;100240.41;;;27.18;47.52
50684;BME280;36654;45.042;38.994;2023-06-10T11:55:58;100227.97;;;27.14;47.41
50684;BME280;36654;45.042;38.994;2023-06-10T11:58:23;100240.22;;;27.21;47.21
50684;BME280;36654;45.042;38.994;2023-06-10T12:00:53;100243.13;;;27.18;47.29
50684;BME280;36654;45.042;38.994;2023-06-10T12:03:20;100244.06;;;27.17;46.87
50684;BME280;36654;45.042;38.994;2023-06-10T12:06:06;100240.03;;;27.24;47.09
50684;BME280;36654;45.042;38.994;2023-06-10T12:08:33;100253.03;;;27.34;46.69
50684;BME280;36654;45.042;38.994;2023-06-10T12:10:59;100246.00;;;27.44;46.40
50684;BME280;36654;45.042;38.994;2023-06-10T12:13:28;100253.72;;;27.50;46.51
50684;BME280;36654;45.042;38.994;2023-06-10T12:15:54;100264.97;;;27.58;46.67
50684;BME280;36654;45.042;38.994;2023-06-10T12:18:22;100264.34;;;27.67;46.93
50684;BME280;36654;45.042;38.994;2023-06-10T12:20:49;100270.28;;;27.74;46.25
50684;BME280;36654;45.042;38.994;2023-06-10T12:23:17;100262.63;;;27.66;46.08
50684;BME280;36654;45.042;38.994;2023-06-10T12:25:54;100226.75;;;27.32;46.33
50684;BME280;36654;45.042;38.994;2023-06-10T12:28:25;100243.63;;;27.52;46.88
50684;BME280;36654;45.042;38.994;2023-06-10T12:30:52;100246.69;;;27.60;46.84
50684;BME280;36654;45.042;38.994;2023-06-10T12:33:31;100199.75;;;27.57;46.86
50684;BME280;36654;45.042;38.994;2023-06-10T12:35:56;100226.91;;;27.71;47.24
50684;BME280;36654;45.042;38.994;2023-06-10T12:38:23;100243.56;;;27.66;47.15
50684;BME280;36654;45.042;38.994;2023-06-10T12:40:50;100240.91;;;27.52;47.28
50684;BME280;36654;45.042;38.994;2023-06-10T12:43:25;100223.47;;;27.27;47.15
50684;BME280;36654;45.042;38.994;2023-06-10T12:45:51;100249.88;;;27.40;47.20
50684;BME280;36654;45.042;38.994;2023-06-10T12:48:24;100234.06;;;27.18;47.57
50684;BME280;36654;45.042;38.994;2023-06-10T12:53:21;100252.47;;;27.28;47.29
50684;BME280;36654;45.042;38.994;2023-06-10T12:55:49;100255.94;;;27.16;47.78
50684;BME280;36654;45.042;38.994;2023-06-10T12:58:15;100279.47;;;27.03;48.17
50684;BME280;36654;45.042;38.994;2023-06-10T13:00:41;100277.84;;;26.86;48.06